sensor_id;sensor_type;location;lat;lon;timestamp;P1;durP1;ratioP1;P2;durP2;ratioP2
15317;SDS011;7759;52.528;13.346;2022-12-17T00:01:18;30.10;;;11.87;;
15317;SDS011;7759;52.528;13.346;2022-12-17T00:04:02;33.77;;;12.90;;
15317;SDS011;7759;52.528;13.346;2022-12-17T00:06:47;29.67;;;12.37;;
15317;SDS011;7759;52.528;13.346;2022-12-17T00:09:32;34.90;;;12.53;;
15317;SDS011;7759;52.528;13.346;2022-12-17T00:12:16;32.10;;;13.37;;
15317;SDS011;7759;52.528;13.346;2022-12-17T00:15:00;24.60;;;9.97;;
15317;SDS011;7759;52.528;13.346;2022-12-17T00:17:45;33.40;;;12.93;;
15317;SDS011;7759;52.528;13.346;2022-12-17T00:20:29;47.47;;;16.17;;
15317;SDS011;7759;52.528;13.346;2022-12-17T00:23:14;33.13;;;11.97;;
15317;SDS011;7759;52.528;13.346;2022-12-17T00:25:59;32.67;;;12.70;;
15317;SDS011;7759;52.528;13.346;2022-12-17T00:28:43;33.90;;;11.60;;
15317;SDS011;7759;52.528;13.346;2022-12-17T00:31:28;35.63;;;12.20;;
15317;SDS011;7759;52.528;13.346;2022-12-17T00:34:13;43.53;;;12.60;;
15317;SDS011;7759;52.528;13.346;2022-12-17T00:36:57;48.90;;;16.10;;
15317;SDS011;7759;52.528;13.346;2022-12-17T00:39:42;22.83;;;9.50;;
15317;SDS011;7759;52.528;13.346;2022-12-17T00:42:28;35.03;;;12.87;;
15317;SDS011;7759;52.528;13.346;2022-12-17T00:45:13;39.07;;;13.00;;
15317;SDS011;7759;52.528;13.346;2022-12-17T00:47:57;33.40;;;11.23;;
15317;SDS011;7759;52.528;13.346;2022-12-17T00:50:42;22.00;;;8.50;;
15317;SDS011;7759;52.528;13.346;2022-12-17T00:53:26;37.67;;;12.57;;
15317;SDS011;7759;52.528;13.346;2022-12-17T00:56:10;21.90;;;9.00;;
15317;SDS011;7759;52.528;13.346;2022-12-17T00:58:55;20.63;;;8.53;;
15317;SDS011;7759;52.528;13.346;2022-12-17T01:01:39;21.80;;;8.77;;
15317;SDS011;7759;52.528;13.346;2022-12-17T01:04:24;32.30;;;10.37;;
15317;SDS011;7759;52.528;13.346;2022-12-17T01:07:08;29.83;;;10.17;;
15317;SDS011;7759;52.528;13.346;2022-12-17T01:09:53;31.40;;;9.67;;
15317;SDS011;7759;52.528;13.346;2022-12-17T01:12:37;30.40;;;11.03;;
15317;SDS011;7759;52.528;13.346;2022-12-17T01:15:29;24.77;;;9.43;;
15317;SDS011;7759;52.528;13.346;2022-12-17T01:18:18;31.63;;;11.60;;
15317;SDS011;7759;52.528;13.346;2022-12-17T01:21:03;39.23;;;13.20;;
15317;SDS011;7759;52.528;13.346;2022-12-17T01:23:48;34.93;;;11.23;;
15317;SDS011;7759;52.528;13.346;2022-12-17T01:26:32;29.10;;;8.63;;
15317;SDS011;7759;52.528;13.346;2022-12-17T01:29:17;35.10;;;11.70;;
15317;SDS011;7759;52.528;13.346;2022-12-17T01:32:01;25.63;;;8.87;;
15317;SDS011;7759;52.528;13.346;2022-12-17T01:34:46;36.73;;;11.93;;
15317;SDS011;7759;52.528;13.346;2022-12-17T01:37:30;38.83;;;12.83;;
15317;SDS011;7759;52.528;13.346;2022-12-17T01:40:15;31.37;;;10.03;;
15317;SDS011;7759;52.528;13.346;2022-12-17T01:42:59;21.73;;;7.67;;
15317;SDS011;7759;52.528;13.346;2022-12-17T01:45:44;19.00;;;7.70;;
15317;SDS011;7759;52.528;13.346;2022-12-17T01:48:37;34.30;;;11.33;;
15317;SDS011;7759;52.528;13.346;2022-12-17T01:51:23;23.50;;;9.90;;
15317;SDS011;7759;52.528;13.346;2022-12-17T01:54:08;20.53;;;8.13;;
15317;SDS011;7759;52.528;13.346;2022-12-17T01:56:53;30.90;;;9.87;;
15317;SDS011;7759;52.528;13.346;2022-12-17T01:59:40;32.23;;;10.67;;
15317;SDS011;7759;52.528;13.346;2022-12-17T02:02:28;26.57;;;10.63;;
15317;SDS011;7759;52.528;13.346;2022-12-17T02:05:12;27.00;;;9.93;;
15317;SDS011;7759;52.528;13.346;2022-12-17T02:08:02;18.97;;;7.73;;
15317;SDS011;7759;52.528;13.346;2022-12-17T02:13:34;20.90;;;8.07;;
15317;SDS011;7759;52.528;13.346;2022-12-17T02:16:20;24.87;;;8.87;;
15317;SDS011;7759;52.528;13.346;2022-12-17T02:19:23;24.90;;;8.50;;
15317;SDS011;7759;52.528;13.346;2022-12-17T02:22:22;33.20;;;9.97;;
15317;SDS011;7759;52.528;13.346;2022-12-17T02:25:13;28.80;;;10.40;;
15317;SDS011;7759;52.528;13.346;2022-12-17T02:28:00;20.80;;;7.33;;
15317;SDS011;7759;52.528;13.346;2022-12-17T02:30:44;14.00;;;6.27;;
15317;SDS011;7759;52.528;13.346;2022-12-17T02:33:29;26.97;;;8.47;;
15317;SDS011;7759;52.528;13.346;2022-12-17T02:36:14;16.60;;;6.57;;
15317;SDS011;7759;52.528;13.346;2022-12-17T02:38:58;30.00;;;12.27;;
15317;SDS011;7759;52.528;13.346;2022-12-17T02:41:44;19.57;;;7.20;;
15317;SDS011;7759;52.528;13.346;2022-12-17T02:44:30;25.23;;;9.27;;
15317;SDS011;7759;52.528;13.346;2022-12-17T02:47:16;19.37;;;7.00;;
15317;SDS011;7759;52.528;13.346;2022-12-17T02:50:02;20.13;;;8.00;;
15317;SDS011;7759;52.528;13.346;2022-12-17T02:52:47;27.30;;;8.50;;
15317;SDS011;7759;52.528;13.346;2022-12-17T02:55:33;15.50;;;6.73;;
15317;SDS011;7759;52.528;13.346;2022-12-17T02:58:17;21.23;;;8.47;;
15317;SDS011;7759;52.528;13.346;2022-12-17T03:01:02;18.67;;;7.00;;
15317;SDS011;7759;52.528;13.346;2022-12-17T03:03:47;20.83;;;8.43;;
15317;SDS011;7759;52.528;13.346;2022-12-17T03:06:31;23.90;;;8.70;;
15317;SDS011;7759;52.528;13.346;2022-12-17T03:09:15;24.60;;;9.37;;
15317;SDS011;7759;52.528;13.346;2022-12-17T03:12:00;19.43;;;8.07;;
15317;SDS011;7759;52.528;13.346;2022-12-17T03:14:44;17.27;;;6.20;;
15317;SDS011;7759;52.528;13.346;2022-12-17T03:17:29;18.10;;;7.00;;
15317;SDS011;7759;52.528;13.346;2022-12-17T03:20:14;18.87;;;7.23;;
15317;SDS011;7759;52.528;13.346;2022-12-17T03:23:03;21.50;;;6.87;;
15317;SDS011;7759;52.528;13.346;2022-12-17T03:25:48;18.77;;;6.27;;
15317;SDS011;7759;52.528;13.346;2022-12-17T03:28:32;14.63;;;6.13;;
15317;SDS011;7759;52.528;13.346;2022-12-17T03:31:17;17.27;;;7.00;;
15317;SDS011;7759;52.528;13.346;2022-12-17T03:34:01;18.13;;;7.60;;
15317;SDS011;7759;52.528;13.346;2022-12-17T03:36:46;23.67;;;9.47;;
15317;SDS011;7759;52.528;13.346;2022-12-17T03:39:30;20.40;;;8.37;;
15317;SDS011;7759;52.528;13.346;2022-12-17T03:42:15;23.60;;;9.40;;
15317;SDS011;7759;52.528;13.346;2022-12-17T03:44:59;23.57;;;8.80;;
15317;SDS011;7759;52.528;13.346;2022-12-17T03:47:44;21.37;;;8.27;;
15317;SDS011;7759;52.528;13.346;2022-12-17T03:50:28;25.30;;;8.17;;
15317;SDS011;7759;52.528;13.346;2022-12-17T03:53:13;16.60;;;5.67;;
15317;SDS011;7759;52.528;13.346;2022-12-17T03:55:58;20.47;;;8.33;;
15317;SDS011;7759;52.528;13.346;2022-12-17T03:58:43;23.10;;;8.63;;
15317;SDS011;7759;52.528;13.346;2022-12-17T04:01:27;15.77;;;5.90;;
15317;SDS011;7759;52.528;13.346;2022-12-17T04:04:12;22.20;;;7.97;;
15317;SDS011;7759;52.528;13.346;2022-12-17T04:06:56;23.17;;;8.63;;
15317;SDS011;7759;52.528;13.346;2022-12-17T04:09:41;16.90;;;7.23;;
15317;SDS011;7759;52.528;13.346;2022-12-17T04:12:25;18.87;;;8.10;;
15317;SDS011;7759;52.528;13.346;2022-12-17T04:15:10;20.90;;;7.60;;
15317;SDS011;7759;52.528;13.346;2022-12-17T04:17:54;10.50;;;5.37;;
15317;SDS011;7759;52.528;13.346;2022-12-17T04:20:39;18.63;;;6.77;;
15317;SDS011;7759;52.528;13.346;2022-12-17T04:23:23;34.27;;;10.93;;
15317;SDS011;7759;52.528;13.346;2022-12-17T04:26:08;30.37;;;10.27;;
15317;SDS011;7759;52.528;13.346;2022-12-17T04:28:52;28.67;;;9.77;;
15317;SDS011;7759;52.528;13.346;2022-12-17T04:31:37;27.30;;;8.27;;
15317;SDS011;7759;52.528;13.346;2022-12-17T04:34:21;26.13;;;8.93;;
15317;SDS011;7759;52.528;13.346;2022-12-17T04:37:06;26.57;;;7.50;;
15317;SDS011;7759;52.528;13.346;2022-12-17T04:39:50;21.73;;;7.77;;
15317;SDS011;7759;52.528;13.346;2022-12-17T04:42:35;24.30;;;8.40;;
15317;SDS011;7759;52.528;13.346;2022-12-17T04:45:19;24.30;;;8.07;;
15317;SDS011;7759;52.528;13.346;2022-12-17T04:48:20;20.80;;;6.57;;
15317;SDS011;7759;52.528;13.346;2022-12-17T04:51:05;30.90;;;10.00;;
15317;SDS011;7759;52.528;13.346;2022-12-17T04:53:50;25.17;;;7.77;;
15317;SDS011;7759;52.528;13.346;2022-12-17T04:56:34;17.53;;;6.27;;
15317;SDS011;7759;52.528;13.346;2022-12-17T04:59:29;17.07;;;5.50;;
15317;SDS011;7759;52.528;13.346;2022-12-17T05:02:14;23.37;;;8.43;;
15317;SDS011;7759;52.528;13.346;2022-12-17T05:04:59;14.90;;;7.43;;
15317;SDS011;7759;52.528;13.346;2022-12-17T05:07:43;18.90;;;6.93;;
15317;SDS011;7759;52.528;13.346;2022-12-17T05:10:28;17.07;;;6.00;;
15317;SDS011;7759;52.528;13.346;2022-12-17T05:13:12;22.97;;;8.30;;
15317;SDS011;7759;52.528;13.346;2022-12-17T05:15:57;17.73;;;5.60;;
15317;SDS011;7759;52.528;13.346;2022-12-17T05:18:41;21.13;;;8.60;;
15317;SDS011;7759;52.528;13.346;2022-12-17T05:21:26;14.47;;;6.50;;
15317;SDS011;7759;52.528;13.346;2022-12-17T05:24:11;19.97;;;8.03;;
15317;SDS011;7759;52.528;13.346;2022-12-17T05:26:55;22.63;;;8.23;;
15317;SDS011;7759;52.528;13.346;2022-12-17T05:29:40;15.97;;;5.93;;
15317;SDS011;7759;52.528;13.346;2022-12-17T05:32:24;23.97;;;7.97;;
15317;SDS011;7759;52.528;13.346;2022-12-17T05:35:08;25.70;;;9.60;;
15317;SDS011;7759;52.528;13.346;2022-12-17T05:37:53;24.47;;;9.37;;
15317;SDS011;7759;52.528;13.346;2022-12-17T05:40:55;13.70;;;5.17;;
15317;SDS011;7759;52.528;13.346;2022-12-17T05:43:39;23.37;;;9.37;;
15317;SDS011;7759;52.528;13.346;2022-12-17T05:46:24;18.77;;;6.93;;
15317;SDS011;7759;52.528;13.346;2022-12-17T05:49:09;18.27;;;7.40;;
15317;SDS011;7759;52.528;13.346;2022-12-17T05:51:54;21.83;;;8.27;;
15317;SDS011;7759;52.528;13.346;2022-12-17T05:54:39;19.17;;;7.53;;
15317;SDS011;7759;52.528;13.346;2022-12-17T05:57:23;13.93;;;5.10;;
15317;SDS011;7759;52.528;13.346;2022-12-17T06:00:08;13.33;;;4.93;;
15317;SDS011;7759;52.528;13.346;2022-12-17T06:02:57;17.90;;;7.83;;
15317;SDS011;7759;52.528;13.346;2022-12-17T06:05:42;25.80;;;9.83;;
15317;SDS011;7759;52.528;13.346;2022-12-17T06:08:26;23.57;;;7.90;;
15317;SDS011;7759;52.528;13.346;2022-12-17T06:11:11;14.07;;;6.30;;
15317;SDS011;7759;52.528;13.346;2022-12-17T06:13:55;24.40;;;9.17;;
15317;SDS011;7759;52.528;13.346;2022-12-17T06:16:39;24.87;;;9.40;;
15317;SDS011;7759;52.528;13.346;2022-12-17T06:19:24;16.87;;;7.50;;
15317;SDS011;7759;52.528;13.346;2022-12-17T06:22:08;14.67;;;6.47;;
15317;SDS011;7759;52.528;13.346;2022-12-17T06:24:53;19.13;;;8.67;;
15317;SDS011;7759;52.528;13.346;2022-12-17T06:27:38;21.17;;;8.17;;
15317;SDS011;7759;52.528;13.346;2022-12-17T06:30:22;31.03;;;9.40;;
15317;SDS011;7759;52.528;13.346;2022-12-17T06:33:10;19.20;;;7.50;;
15317;SDS011;7759;52.528;13.346;2022-12-17T06:35:56;19.83;;;8.93;;
15317;SDS011;7759;52.528;13.346;2022-12-17T06:38:41;23.73;;;7.53;;
15317;SDS011;7759;52.528;13.346;2022-12-17T06:41:26;22.97;;;8.40;;
15317;SDS011;7759;52.528;13.346;2022-12-17T06:44:10;15.53;;;6.77;;
15317;SDS011;7759;52.528;13.346;2022-12-17T06:46:55;17.10;;;5.80;;
15317;SDS011;7759;52.528;13.346;2022-12-17T06:49:39;17.30;;;6.67;;
15317;SDS011;7759;52.528;13.346;2022-12-17T06:52:24;21.67;;;7.13;;
15317;SDS011;7759;52.528;13.346;2022-12-17T06:55:08;20.53;;;7.57;;
15317;SDS011;7759;52.528;13.346;2022-12-17T06:57:56;22.40;;;8.73;;
15317;SDS011;7759;52.528;13.346;2022-12-17T07:00:41;22.47;;;8.43;;
15317;SDS011;7759;52.528;13.346;2022-12-17T07:03:26;16.03;;;6.17;;
15317;SDS011;7759;52.528;13.346;2022-12-17T07:06:11;26.20;;;8.80;;
15317;SDS011;7759;52.528;13.346;2022-12-17T07:08:55;13.63;;;5.40;;
15317;SDS011;7759;52.528;13.346;2022-12-17T07:11:40;24.77;;;8.03;;
15317;SDS011;7759;52.528;13.346;2022-12-17T07:14:24;24.93;;;9.00;;
15317;SDS011;7759;52.528;13.346;2022-12-17T07:17:09;28.23;;;9.87;;
15317;SDS011;7759;52.528;13.346;2022-12-17T07:19:53;30.50;;;10.73;;
15317;SDS011;7759;52.528;13.346;2022-12-17T07:22:38;28.87;;;10.10;;
15317;SDS011;7759;52.528;13.346;2022-12-17T07:25:22;17.70;;;6.13;;
15317;SDS011;7759;52.528;13.346;2022-12-17T07:28:07;24.10;;;7.53;;
15317;SDS011;7759;52.528;13.346;2022-12-17T07:30:51;14.47;;;5.40;;
15317;SDS011;7759;52.528;13.346;2022-12-17T07:33:36;15.43;;;7.03;;
15317;SDS011;7759;52.528;13.346;2022-12-17T07:36:20;18.30;;;6.80;;
15317;SDS011;7759;52.528;13.346;2022-12-17T07:39:05;19.23;;;8.13;;
15317;SDS011;7759;52.528;13.346;2022-12-17T07:41:49;21.40;;;8.73;;
15317;SDS011;7759;52.528;13.346;2022-12-17T07:44:34;15.00;;;6.80;;
15317;SDS011;7759;52.528;13.346;2022-12-17T07:47:18;16.97;;;7.73;;
15317;SDS011;7759;52.528;13.346;2022-12-17T07:50:03;11.80;;;5.13;;
15317;SDS011;7759;52.528;13.346;2022-12-17T07:52:56;14.30;;;6.10;;
15317;SDS011;7759;52.528;13.346;2022-12-17T07:55:41;17.10;;;7.43;;
15317;SDS011;7759;52.528;13.346;2022-12-17T07:58:25;17.50;;;7.23;;
15317;SDS011;7759;52.528;13.346;2022-12-17T08:01:10;18.17;;;6.83;;
15317;SDS011;7759;52.528;13.346;2022-12-17T08:03:55;24.90;;;10.23;;
15317;SDS011;7759;52.528;13.346;2022-12-17T08:06:39;17.47;;;8.07;;
15317;SDS011;7759;52.528;13.346;2022-12-17T08:09:24;14.43;;;5.97;;
15317;SDS011;7759;52.528;13.346;2022-12-17T08:12:08;20.77;;;9.07;;
15317;SDS011;7759;52.528;13.346;2022-12-17T08:14:53;21.43;;;8.63;;
15317;SDS011;7759;52.528;13.346;2022-12-17T08:17:37;22.60;;;10.17;;
15317;SDS011;7759;52.528;13.346;2022-12-17T08:20:22;22.13;;;8.67;;
15317;SDS011;7759;52.528;13.346;2022-12-17T08:23:06;24.37;;;9.57;;
15317;SDS011;7759;52.528;13.346;2022-12-17T08:25:52;21.80;;;9.00;;
15317;SDS011;7759;52.528;13.346;2022-12-17T08:28:36;27.17;;;10.63;;
15317;SDS011;7759;52.528;13.346;2022-12-17T08:31:24;26.00;;;10.23;;
15317;SDS011;7759;52.528;13.346;2022-12-17T08:34:09;21.90;;;9.33;;
15317;SDS011;7759;52.528;13.346;2022-12-17T08:36:53;23.73;;;9.47;;
15317;SDS011;7759;52.528;13.346;2022-12-17T08:39:38;20.80;;;9.07;;
15317;SDS011;7759;52.528;13.346;2022-12-17T08:42:23;28.07;;;10.93;;
15317;SDS011;7759;52.528;13.346;2022-12-17T08:45:07;20.53;;;9.03;;
15317;SDS011;7759;52.528;13.346;2022-12-17T08:47:52;20.47;;;9.37;;
15317;SDS011;7759;52.528;13.346;2022-12-17T08:50:36;20.83;;;8.33;;
15317;SDS011;7759;52.528;13.346;2022-12-17T08:53:21;20.30;;;9.03;;
15317;SDS011;7759;52.528;13.346;2022-12-17T08:56:06;23.87;;;10.33;;
15317;SDS011;7759;52.528;13.346;2022-12-17T08:58:50;20.97;;;8.83;;
15317;SDS011;7759;52.528;13.346;2022-12-17T09:01:35;25.67;;;9.67;;
15317;SDS011;7759;52.528;13.346;2022-12-17T09:04:19;29.93;;;10.47;;
15317;SDS011;7759;52.528;13.346;2022-12-17T09:07:04;29.90;;;10.97;;
15317;SDS011;7759;52.528;13.346;2022-12-17T09:09:48;33.60;;;10.90;;
15317;SDS011;7759;52.528;13.346;2022-12-17T09:12:33;30.00;;;11.07;;
15317;SDS011;7759;52.528;13.346;2022-12-17T09:15:17;30.77;;;10.67;;
15317;SDS011;7759;52.528;13.346;2022-12-17T09:18:02;32.13;;;11.83;;
15317;SDS011;7759;52.528;13.346;2022-12-17T09:20:50;28.93;;;12.07;;
15317;SDS011;7759;52.528;13.346;2022-12-17T09:23:35;27.57;;;10.90;;
15317;SDS011;7759;52.528;13.346;2022-12-17T09:26:19;32.17;;;10.73;;
15317;SDS011;7759;52.528;13.346;2022-12-17T09:29:04;33.90;;;13.37;;
15317;SDS011;7759;52.528;13.346;2022-12-17T09:31:48;33.40;;;14.23;;
15317;SDS011;7759;52.528;13.346;2022-12-17T09:34:33;30.63;;;11.53;;
15317;SDS011;7759;52.528;13.346;2022-12-17T09:37:17;39.23;;;14.10;;
15317;SDS011;7759;52.528;13.346;2022-12-17T09:40:02;30.10;;;11.07;;
15317;SDS011;7759;52.528;13.346;2022-12-17T09:43:33;37.40;;;13.97;;
15317;SDS011;7759;52.528;13.346;2022-12-17T09:46:04;22.57;;;9.73;;
15317;SDS011;7759;52.528;13.346;2022-12-17T09:51:56;25.03;;;11.03;;
15317;SDS011;7759;52.528;13.346;2022-12-17T09:54:42;27.77;;;9.73;;
15317;SDS011;7759;52.528;13.346;2022-12-17T09:57:29;36.57;;;13.30;;
15317;SDS011;7759;52.528;13.346;2022-12-17T10:00:17;34.17;;;12.03;;
15317;SDS011;7759;52.528;13.346;2022-12-17T10:03:03;25.67;;;10.73;;
15317;SDS011;7759;52.528;13.346;2022-12-17T10:05:52;30.90;;;11.77;;
15317;SDS011;7759;52.528;13.346;2022-12-17T10:08:36;33.80;;;12.03;;
15317;SDS011;7759;52.528;13.346;2022-12-17T10:11:22;29.57;;;10.27;;
15317;SDS011;7759;52.528;13.346;2022-12-17T10:14:13;29.23;;;10.57;;
15317;SDS011;7759;52.528;13.346;2022-12-17T10:16:59;31.90;;;11.47;;
15317;SDS011;7759;52.528;13.346;2022-12-17T10:19:43;40.30;;;12.83;;
15317;SDS011;7759;52.528;13.346;2022-12-17T10:22:28;36.43;;;12.27;;
15317;SDS011;7759;52.528;13.346;2022-12-17T10:25:14;38.03;;;13.30;;
15317;SDS011;7759;52.528;13.346;2022-12-17T10:28:00;39.13;;;13.37;;
15317;SDS011;7759;52.528;13.346;2022-12-17T10:30:46;35.10;;;12.03;;
15317;SDS011;7759;52.528;13.346;2022-12-17T10:33:35;34.13;;;12.23;;
15317;SDS011;7759;52.528;13.346;2022-12-17T10:36:20;29.03;;;10.27;;
15317;SDS011;7759;52.528;13.346;2022-12-17T10:39:05;32.53;;;11.00;;
15317;SDS011;7759;52.528;13.346;2022-12-17T10:41:57;34.23;;;11.67;;
15317;SDS011;7759;52.528;13.346;2022-12-17T10:44:42;26.60;;;9.93;;
15317;SDS011;7759;52.528;13.346;2022-12-17T10:47:27;34.33;;;10.80;;
15317;SDS011;7759;52.528;13.346;2022-12-17T10:52:56;33.90;;;10.40;;
15317;SDS011;7759;52.528;13.346;2022-12-17T10:55:54;32.27;;;11.53;;
15317;SDS011;7759;52.528;13.346;2022-12-17T10:58:45;44.47;;;14.33;;
15317;SDS011;7759;52.528;13.346;2022-12-17T11:01:30;31.73;;;11.20;;
15317;SDS011;7759;52.528;13.346;2022-12-17T11:04:23;35.87;;;14.70;;
15317;SDS011;7759;52.528;13.346;2022-12-17T11:07:30;32.07;;;11.67;;
15317;SDS011;7759;52.528;13.346;2022-12-17T11:10:14;37.73;;;13.17;;
15317;SDS011;7759;52.528;13.346;2022-12-17T11:13:03;34.17;;;12.07;;
15317;SDS011;7759;52.528;13.346;2022-12-17T11:15:51;32.57;;;11.83;;
15317;SDS011;7759;52.528;13.346;2022-12-17T11:18:39;44.37;;;13.83;;
15317;SDS011;7759;52.528;13.346;2022-12-17T11:21:27;32.10;;;12.17;;
15317;SDS011;7759;52.528;13.346;2022-12-17T11:24:14;30.80;;;11.60;;
15317;SDS011;7759;52.528;13.346;2022-12-17T11:27:00;33.90;;;11.17;;
15317;SDS011;7759;52.528;13.346;2022-12-17T11:29:46;36.63;;;10.97;;
15317;SDS011;7759;52.528;13.346;2022-12-17T11:38:50;30.03;;;11.47;;
15317;SDS011;7759;52.528;13.346;2022-12-17T11:41:38;29.47;;;11.07;;
15317;SDS011;7759;52.528;13.346;2022-12-17T11:47:31;37.87;;;12.90;;
15317;SDS011;7759;52.528;13.346;2022-12-17T11:50:25;37.10;;;12.40;;
15317;SDS011;7759;52.528;13.346;2022-12-17T11:56:05;31.23;;;11.63;;
15317;SDS011;7759;52.528;13.346;2022-12-17T11:58:54;36.93;;;13.47;;
15317;SDS011;7759;52.528;13.346;2022-12-17T12:01:43;39.80;;;13.07;;
15317;SDS011;7759;52.528;13.346;2022-12-17T12:07:30;30.40;;;11.03;;
15317;SDS011;7759;52.528;13.346;2022-12-17T12:10:27;23.60;;;8.10;;
15317;SDS011;7759;52.528;13.346;2022-12-17T12:13:31;29.10;;;10.20;;
15317;SDS011;7759;52.528;13.346;2022-12-17T12:22:41;27.30;;;10.13;;
15317;SDS011;7759;52.528;13.346;2022-12-17T12:25:39;33.10;;;11.00;;
15317;SDS011;7759;52.528;13.346;2022-12-17T12:31:28;32.37;;;12.27;;
15317;SDS011;7759;52.528;13.346;2022-12-17T12:34:25;32.47;;;11.37;;
15317;SDS011;7759;52.528;13.346;2022-12-17T12:37:11;26.57;;;10.00;;
15317;SDS011;7759;52.528;13.346;2022-12-17T12:39:59;27.97;;;10.37;;
15317;SDS011;7759;52.528;13.346;2022-12-17T12:42:54;31.63;;;11.40;;
15317;SDS011;7759;52.528;13.346;2022-12-17T12:48:27;29.00;;;11.20;;
15317;SDS011;7759;52.528;13.346;2022-12-17T12:51:22;25.57;;;8.93;;
15317;SDS011;7759;52.528;13.346;2022-12-17T12:54:21;27.27;;;10.27;;
15317;SDS011;7759;52.528;13.346;2022-12-17T12:57:25;25.67;;;9.80;;
15317;SDS011;7759;52.528;13.346;2022-12-17T13:09:03;26.63;;;9.63;;
15317;SDS011;7759;52.528;13.346;2022-12-17T13:11:34;25.90;;;9.40;;
15317;SDS011;7759;52.528;13.346;2022-12-17T13:14:04;24.33;;;9.30;;
15317;SDS011;7759;52.528;13.346;2022-12-17T13:16:35;26.27;;;8.57;;
15317;SDS011;7759;52.528;13.346;2022-12-17T13:19:20;35.90;;;12.23;;
15317;SDS011;7759;52.528;13.346;2022-12-17T13:21:46;30.30;;;10.43;;
15317;SDS011;7759;52.528;13.346;2022-12-17T13:24:21;32.53;;;10.70;;
15317;SDS011;7759;52.528;13.346;2022-12-17T13:26:48;40.20;;;12.20;;
15317;SDS011;7759;52.528;13.346;2022-12-17T13:29:21;30.03;;;10.80;;
15317;SDS011;7759;52.528;13.346;2022-12-17T13:34:34;25.63;;;9.37;;
15317;SDS011;7759;52.528;13.346;2022-12-17T13:37:13;22.73;;;8.87;;
15317;SDS011;7759;52.528;13.346;2022-12-17T13:39:46;21.10;;;7.40;;
15317;SDS011;7759;52.528;13.346;2022-12-17T13:42:16;19.50;;;7.60;;
15317;SDS011;7759;52.528;13.346;2022-12-17T13:44:43;26.40;;;10.00;;
15317;SDS011;7759;52.528;13.346;2022-12-17T13:47:18;27.37;;;11.70;;
15317;SDS011;7759;52.528;13.346;2022-12-17T13:49:48;28.37;;;10.37;;
15317;SDS011;7759;52.528;13.346;2022-12-17T13:52:16;28.90;;;9.57;;
15317;SDS011;7759;52.528;13.346;2022-12-17T13:54:43;40.97;;;13.50;;
15317;SDS011;7759;52.528;13.346;2022-12-17T13:57:11;44.03;;;11.37;;
15317;SDS011;7759;52.528;13.346;2022-12-17T13:59:38;30.83;;;11.27;;
15317;SDS011;7759;52.528;13.346;2022-12-17T14:02:04;29.67;;;10.10;;
15317;SDS011;7759;52.528;13.346;2022-12-17T14:04:30;16.53;;;6.90;;
15317;SDS011;7759;52.528;13.346;2022-12-17T14:07:02;39.83;;;13.27;;
15317;SDS011;7759;52.528;13.346;2022-12-17T14:09:33;37.37;;;12.60;;
15317;SDS011;7759;52.528;13.346;2022-12-17T14:12:03;32.17;;;11.40;;
15317;SDS011;7759;52.528;13.346;2022-12-17T14:17:15;31.03;;;10.67;;
15317;SDS011;7759;52.528;13.346;2022-12-17T14:19:42;34.73;;;11.40;;
15317;SDS011;7759;52.528;13.346;2022-12-17T14:22:10;30.97;;;11.00;;
15317;SDS011;7759;52.528;13.346;2022-12-17T14:24:41;29.47;;;12.13;;
15317;SDS011;7759;52.528;13.346;2022-12-17T14:27:17;32.80;;;12.13;;
15317;SDS011;7759;52.528;13.346;2022-12-17T14:29:46;34.20;;;10.63;;
15317;SDS011;7759;52.528;13.346;2022-12-17T14:32:22;35.97;;;11.43;;
15317;SDS011;7759;52.528;13.346;2022-12-17T14:34:49;33.23;;;9.97;;
15317;SDS011;7759;52.528;13.346;2022-12-17T14:37:20;34.10;;;11.40;;
15317;SDS011;7759;52.528;13.346;2022-12-17T14:39:47;25.77;;;10.03;;
15317;SDS011;7759;52.528;13.346;2022-12-17T14:42:17;34.97;;;12.20;;
15317;SDS011;7759;52.528;13.346;2022-12-17T14:45:00;31.90;;;12.20;;
15317;SDS011;7759;52.528;13.346;2022-12-17T14:47:30;33.50;;;10.83;;
15317;SDS011;7759;52.528;13.346;2022-12-17T14:49:58;36.23;;;11.63;;
15317;SDS011;7759;52.528;13.346;2022-12-17T14:52:35;29.33;;;9.67;;
15317;SDS011;7759;52.528;13.346;2022-12-17T14:57:47;26.93;;;9.67;;
15317;SDS011;7759;52.528;13.346;2022-12-17T15:00:13;37.20;;;12.03;;
15317;SDS011;7759;52.528;13.346;2022-12-17T15:02:39;35.17;;;12.63;;
15317;SDS011;7759;52.528;13.346;2022-12-17T15:05:08;39.10;;;12.60;;
15317;SDS011;7759;52.528;13.346;2022-12-17T15:07:37;48.22;;;16.50;;
15317;SDS011;7759;52.528;13.346;2022-12-17T15:10:07;35.53;;;13.47;;
15317;SDS011;7759;52.528;13.346;2022-12-17T15:12:34;27.13;;;10.47;;
15317;SDS011;7759;52.528;13.346;2022-12-17T15:15:00;34.37;;;11.70;;
15317;SDS011;7759;52.528;13.346;2022-12-17T15:17:26;28.70;;;10.90;;
15317;SDS011;7759;52.528;13.346;2022-12-17T15:19:52;40.83;;;12.90;;
15317;SDS011;7759;52.528;13.346;2022-12-17T15:22:18;36.97;;;11.90;;
15317;SDS011;7759;52.528;13.346;2022-12-17T15:24:44;32.03;;;11.00;;
15317;SDS011;7759;52.528;13.346;2022-12-17T15:27:13;33.67;;;12.13;;
15317;SDS011;7759;52.528;13.346;2022-12-17T15:29:40;33.27;;;11.80;;
15317;SDS011;7759;52.528;13.346;2022-12-17T15:32:06;32.77;;;10.53;;
15317;SDS011;7759;52.528;13.346;2022-12-17T15:34:32;33.03;;;11.67;;
15317;SDS011;7759;52.528;13.346;2022-12-17T15:36:58;29.73;;;10.73;;
15317;SDS011;7759;52.528;13.346;2022-12-17T15:39:24;36.13;;;12.07;;
15317;SDS011;7759;52.528;13.346;2022-12-17T15:41:49;35.20;;;11.93;;
15317;SDS011;7759;52.528;13.346;2022-12-17T15:44:34;28.30;;;10.20;;
15317;SDS011;7759;52.528;13.346;2022-12-17T15:47:00;36.13;;;12.30;;
15317;SDS011;7759;52.528;13.346;2022-12-17T15:49:26;35.27;;;11.90;;
15317;SDS011;7759;52.528;13.346;2022-12-17T15:51:53;27.00;;;8.10;;
15317;SDS011;7759;52.528;13.346;2022-12-17T15:54:18;25.13;;;10.27;;
15317;SDS011;7759;52.528;13.346;2022-12-17T15:56:50;26.70;;;8.20;;
15317;SDS011;7759;52.528;13.346;2022-12-17T15:59:16;32.50;;;10.60;;
15317;SDS011;7759;52.528;13.346;2022-12-17T16:01:42;25.90;;;9.37;;
15317;SDS011;7759;52.528;13.346;2022-12-17T16:04:08;25.30;;;7.87;;
15317;SDS011;7759;52.528;13.346;2022-12-17T16:06:34;32.23;;;10.70;;
15317;SDS011;7759;52.528;13.346;2022-12-17T16:09:00;28.97;;;8.13;;
15317;SDS011;7759;52.528;13.346;2022-12-17T16:11:26;23.03;;;9.37;;
15317;SDS011;7759;52.528;13.346;2022-12-17T16:13:52;24.77;;;8.73;;
15317;SDS011;7759;52.528;13.346;2022-12-17T16:16:19;23.17;;;7.60;;
15317;SDS011;7759;52.528;13.346;2022-12-17T16:18:45;27.57;;;10.27;;
15317;SDS011;7759;52.528;13.346;2022-12-17T16:21:10;24.27;;;8.30;;
15317;SDS011;7759;52.528;13.346;2022-12-17T16:23:36;29.93;;;9.77;;
15317;SDS011;7759;52.528;13.346;2022-12-17T16:26:03;27.20;;;10.63;;
15317;SDS011;7759;52.528;13.346;2022-12-17T16:28:30;26.23;;;8.60;;
15317;SDS011;7759;52.528;13.346;2022-12-17T16:30:59;27.90;;;10.13;;
15317;SDS011;7759;52.528;13.346;2022-12-17T16:33:26;30.17;;;10.37;;
15317;SDS011;7759;52.528;13.346;2022-12-17T16:35:52;32.13;;;10.67;;
15317;SDS011;7759;52.528;13.346;2022-12-17T16:38:18;52.63;;;18.43;;
15317;SDS011;7759;52.528;13.346;2022-12-17T16:40:45;34.93;;;11.93;;
15317;SDS011;7759;52.528;13.346;2022-12-17T16:43:11;17.87;;;6.50;;
15317;SDS011;7759;52.528;13.346;2022-12-17T16:45:39;35.33;;;11.03;;
15317;SDS011;7759;52.528;13.346;2022-12-17T16:48:10;29.87;;;9.47;;